Time;durP1;ratioP1;P1;durP2;ratioP2;P2;SDS_P1;SDS_P2;PMS_P1;PMS_P2;Temp;Humidity;BMP_temperature;BMP_pressure;BME280_temperature;BME280_humidity;BME280_pressure;Samples;Min_cycle;Max_cycle;Signal;HPM_P1;HPM_P2
2023/04/23 00:01:02;;;;;;;39.67;23.02;;;8.60;99.90;;;;;;5014957;28;20057;-71
2023/04/23 00:03:32;;;;;;;33.30;21.50;;;9.00;99.90;;;;;;5019146;28;20042;-70
2023/04/23 00:05:58;;;;;;;40.25;23.30;;;8.80;99.90;;;;;;5021327;28;20058;-70
2023/04/23 00:08:26;;;;;;;37.85;24.17;;;8.60;99.90;;;;;;5012476;28;20062;-71
2023/04/23 00:10:52;;;;;;;34.97;22.92;;;8.60;99.90;;;;;;5017489;28;20052;-71
2023/04/23 00:13:17;;;;;;;47.67;23.20;;;8.60;99.90;;;;;;4996638;28;20058;-71
2023/04/23 00:15:43;;;;;;;35.35;22.85;;;8.60;99.90;;;;;;5015459;28;20808;-71
2023/04/23 00:18:09;;;;;;;34.88;22.77;;;8.50;99.90;;;;;;5015065;28;20077;-71
2023/04/23 00:20:35;;;;;;;45.47;22.73;;;8.50;99.90;;;;;;5016988;28;20041;-71
2023/04/23 00:23:01;;;;;;;36.22;22.40;;;8.40;99.90;;;;;;5012561;28;20107;-70
2023/04/23 00:25:27;;;;;;;45.80;22.73;;;8.40;99.90;;;;;;5017237;28;20057;-70
2023/04/23 00:27:52;;;;;;;60.38;22.38;;;8.40;99.90;;;;;;5004328;28;20458;-71
2023/04/23 00:30:18;;;;;;;45.67;22.40;;;8.90;99.90;;;;;;5016327;28;20069;-71
2023/04/23 00:32:44;;;;;;;45.15;22.10;;;8.40;99.90;;;;;;5013331;28;20049;-72
2023/04/23 00:35:10;;;;;;;43.70;22.85;;;8.30;99.90;;;;;;5024386;28;20064;-72
2023/04/23 00:37:36;;;;;;;38.40;24.13;;;8.40;99.90;;;;;;5008441;28;20132;-72
2023/04/23 00:40:03;;;;;;;43.08;23.42;;;8.30;99.90;;;;;;5026728;28;20026;-72
2023/04/23 00:42:29;;;;;;;39.88;23.83;;;8.30;99.90;;;;;;5026715;28;20055;-72
2023/04/23 00:44:55;;;;;;;38.60;22.83;;;8.40;99.90;;;;;;5026415;28;20046;-72
2023/04/23 00:47:22;;;;;;;35.97;22.05;;;8.30;99.90;;;;;;5010501;28;20075;-72
2023/04/23 00:49:49;;;;;;;35.65;23.20;;;8.30;99.90;;;;;;5027151;28;20079;-72
2023/04/23 00:52:15;;;;;;;35.15;22.83;;;8.30;99.90;;;;;;5009227;28;20052;-72
2023/04/23 00:54:41;;;;;;;38.10;22.67;;;8.30;99.90;;;;;;5028545;28;20041;-72
2023/04/23 00:57:07;;;;;;;36.80;23.25;;;8.40;99.90;;;;;;5025938;28;20045;-72
2023/04/23 00:59:34;;;;;;;36.17;22.08;;;8.30;99.90;;;;;;5025687;28;20042;-71
2023/04/23 01:02:00;;;;;;;39.78;23.85;;;8.30;99.90;;;;;;5014151;28;20587;-72
2023/04/23 01:04:28;;;;;;;36.17;23.33;;;8.30;99.90;;;;;;5009041;28;20057;-72
2023/04/23 01:06:55;;;;;;;34.15;22.35;;;8.50;99.90;;;;;;5016310;28;20085;-72
2023/04/23 01:09:22;;;;;;;39.05;22.98;;;8.20;99.90;;;;;;5022887;28;20041;-71
2023/04/23 01:11:49;;;;;;;42.17;24.42;;;8.20;99.90;;;;;;5022017;28;20042;-71
2023/04/23 01:14:16;;;;;;;38.70;24.52;;;8.20;99.90;;;;;;5023216;28;20459;-72
2023/04/23 01:16:42;;;;;;;40.42;23.77;;;8.20;99.90;;;;;;5006406;28;20490;-72
2023/04/23 01:19:09;;;;;;;37.83;23.80;;;8.10;99.90;;;;;;5019124;28;20068;-71
2023/04/23 01:21:36;;;;;;;38.55;23.15;;;8.10;99.90;;;;;;5025322;28;20565;-71
2023/04/23 01:24:06;;;;;;;34.67;23.25;;;8.10;99.90;;;;;;5016255;28;20037;-72
2023/04/23 01:26:32;;;;;;;38.67;23.75;;;8.10;99.90;;;;;;5020115;28;20033;-71
2023/04/23 01:28:59;;;;;;;40.80;24.08;;;8.10;99.90;;;;;;5017696;28;20049;-71
2023/04/23 01:31:28;;;;;;;39.40;22.60;;;8.00;99.90;;;;;;5011461;28;20080;-71
2023/04/23 01:33:55;;;;;;;36.80;22.55;;;8.10;99.90;;;;;;5007800;28;20404;-72
2023/04/23 01:36:25;;;;;;;40.53;24.13;;;8.10;99.90;;;;;;5024051;28;20372;-70
2023/04/23 01:38:52;;;;;;;39.70;23.85;;;8.00;99.90;;;;;;5036819;28;20034;-71
2023/04/23 01:41:18;;;;;;;37.20;23.30;;;8.00;99.90;;;;;;5048839;28;20080;-72
2023/04/23 01:43:45;;;;;;;39.25;23.80;;;8.00;99.90;;;;;;5003428;28;20042;-71
2023/04/23 01:46:11;;;;;;;44.92;25.95;;;8.00;99.90;;;;;;5021596;28;20049;-72
2023/04/23 01:48:37;;;;;;;48.47;26.48;;;8.00;99.90;;;;;;4997857;28;20545;-72
2023/04/23 01:51:03;;;;;;;46.58;27.17;;;8.10;99.90;;;;;;5018169;28;20038;-72
2023/04/23 01:53:29;;;;;;;40.42;25.00;;;7.90;99.90;;;;;;5021378;28;20427;-72
2023/04/23 01:55:55;;;;;;;46.05;27.20;;;8.30;99.90;;;;;;5013416;28;20052;-71
2023/04/23 01:58:22;;;;;;;50.72;27.25;;;7.90;99.90;;;;;;4998215;28;20597;-74
2023/04/23 02:00:49;;;;;;;49.92;28.17;;;7.90;99.90;;;;;;4998430;28;20042;-73
2023/04/23 02:03:14;;;;;;;50.72;29.10;;;7.90;99.90;;;;;;5016883;28;20041;-73
2023/04/23 02:05:41;;;;;;;45.92;28.10;;;7.90;99.90;;;;;;5024400;28;20061;-71
2023/04/23 02:08:07;;;;;;;52.35;29.55;;;7.90;99.90;;;;;;4996888;28;20070;-73
2023/04/23 02:10:33;;;;;;;50.97;29.42;;;7.80;99.90;;;;;;4993870;28;20051;-72
2023/04/23 02:13:00;;;;;;;51.47;29.00;;;7.80;99.90;;;;;;5021649;28;20037;-71
2023/04/23 02:15:25;;;;;;;59.92;30.88;;;7.80;99.90;;;;;;5007538;28;20052;-72
2023/04/23 02:17:52;;;;;;;55.25;29.83;;;7.80;99.90;;;;;;5024160;28;20045;-72
2023/04/23 02:20:18;;;;;;;54.53;30.13;;;7.80;99.90;;;;;;5010415;28;20061;-72
2023/04/23 02:22:45;;;;;;;52.00;29.17;;;7.80;99.90;;;;;;5017214;28;20045;-72
2023/04/23 02:25:14;;;;;;;57.60;32.17;;;7.80;99.90;;;;;;5018126;28;20416;-72
2023/04/23 02:27:41;;;;;;;60.50;32.10;;;7.90;99.90;;;;;;5019124;28;20410;-72
2023/04/23 02:30:08;;;;;;;59.83;33.55;;;7.90;99.90;;;;;;5014822;28;20056;-72
2023/04/23 02:32:35;;;;;;;59.05;32.17;;;7.80;99.90;;;;;;5009306;28;20053;-72
2023/04/23 02:35:01;;;;;;;57.25;31.67;;;7.70;99.90;;;;;;5002329;28;20053;-72
2023/04/23 02:37:27;;;;;;;56.80;31.90;;;7.70;99.90;;;;;;5019702;28;20053;-73
2023/04/23 02:39:53;;;;;;;68.97;36.25;;;7.70;99.90;;;;;;4998201;28;20041;-73
2023/04/23 02:42:19;;;;;;;66.63;36.13;;;7.70;99.90;;;;;;5026006;28;20410;-74
2023/04/23 02:44:45;;;;;;;70.22;38.33;;;7.70;99.90;;;;;;5022114;28;20053;-73
2023/04/23 02:47:10;;;;;;;71.00;38.30;;;7.70;99.90;;;;;;4998787;28;20044;-72
2023/04/23 02:49:36;;;;;;;83.85;40.38;;;7.60;99.90;;;;;;5022848;28;20050;-72
2023/04/23 02:52:02;;;;;;;102.55;42.05;;;7.60;99.90;;;;;;5035323;28;20034;-72
2023/04/23 02:54:28;;;;;;;105.25;43.95;;;7.60;99.90;;;;;;5022874;28;20037;-72
2023/04/23 02:56:54;;;;;;;101.38;44.47;;;7.60;99.90;;;;;;5025660;28;20056;-73
2023/04/23 02:59:19;;;;;;;94.22;43.90;;;7.50;99.90;;;;;;5020305;28;20575;-75
2023/04/23 03:01:45;;;;;;;92.28;44.50;;;7.60;99.90;;;;;;5023578;28;20406;-71
2023/04/23 03:04:11;;;;;;;141.38;44.47;;;7.60;99.90;;;;;;5024606;28;20053;-72
2023/04/23 03:06:37;;;;;;;148.32;44.25;;;7.50;99.90;;;;;;5026350;28;20580;-73
2023/04/23 03:09:03;;;;;;;79.03;43.20;;;7.50;99.90;;;;;;5025968;28;20048;-73
2023/04/23 03:11:30;;;;;;;173.93;45.42;;;7.60;99.90;;;;;;5026019;28;20103;-73
2023/04/23 03:13:56;;;;;;;104.07;44.03;;;7.50;99.90;;;;;;5028015;28;20052;-73
2023/04/23 03:16:22;;;;;;;129.32;44.60;;;7.50;99.90;;;;;;5018473;28;20041;-74
2023/04/23 03:18:47;;;;;;;131.73;45.67;;;7.50;99.90;;;;;;5020358;28;20045;-73
2023/04/23 03:21:13;;;;;;;82.85;44.05;;;7.70;99.90;;;;;;5020333;28;20383;-74
2023/04/23 03:23:39;;;;;;;136.93;46.97;;;7.50;99.90;;;;;;5023827;28;20057;-74
2023/04/23 03:26:05;;;;;;;97.57;43.25;;;7.50;99.90;;;;;;5017461;28;20046;-74
2023/04/23 03:28:30;;;;;;;114.53;45.42;;;7.50;99.90;;;;;;5001554;28;20146;-73
2023/04/23 03:30:56;;;;;;;124.22;45.45;;;7.50;99.90;;;;;;5024056;28;20545;-73
2023/04/23 03:33:22;;;;;;;169.35;46.97;;;7.50;99.90;;;;;;5004896;28;20068;-73
2023/04/23 03:35:48;;;;;;;129.52;48.75;;;7.50;99.90;;;;;;5004339;28;20125;-72
2023/04/23 03:38:13;;;;;;;110.25;47.47;;;7.50;99.90;;;;;;5022106;28;20849;-73
2023/04/23 03:40:39;;;;;;;92.90;46.90;;;7.50;99.90;;;;;;5016836;28;20753;-73
2023/04/23 03:43:05;;;;;;;90.40;47.80;;;7.90;99.90;;;;;;5020045;28;20069;-74
2023/04/23 03:45:31;;;;;;;112.90;50.67;;;7.50;99.90;;;;;;5005874;28;20128;-73
2023/04/23 03:47:57;;;;;;;108.70;50.05;;;7.50;99.90;;;;;;5014305;28;20069;-73
2023/04/23 03:50:23;;;;;;;122.32;50.42;;;7.60;99.90;;;;;;5003278;28;20529;-73
2023/04/23 03:52:48;;;;;;;102.22;49.75;;;7.50;99.90;;;;;;5013971;28;20073;-74
2023/04/23 03:55:14;;;;;;;105.95;49.72;;;7.50;99.90;;;;;;5003190;28;20056;-72
2023/04/23 03:57:40;;;;;;;103.10;51.85;;;7.00;99.90;;;;;;5023640;28;20057;-72
2023/04/23 04:00:07;;;;;;;107.25;50.03;;;7.50;99.90;;;;;;5020482;28;20042;-72
2023/04/23 04:02:33;;;;;;;124.03;51.28;;;7.60;99.90;;;;;;5010740;28;20139;-73
2023/04/23 04:04:59;;;;;;;108.03;50.28;;;7.60;99.90;;;;;;5021721;28;20081;-74
2023/04/23 04:07:25;;;;;;;122.68;53.78;;;7.60;99.90;;;;;;4999310;28;20045;-73
2023/04/23 04:09:51;;;;;;;109.90;54.10;;;7.60;99.90;;;;;;5007751;28;20128;-73
2023/04/23 04:12:17;;;;;;;112.13;53.70;;;7.60;99.90;;;;;;5022655;28;20137;-73
2023/04/23 04:14:43;;;;;;;114.68;54.88;;;7.60;99.90;;;;;;5014505;28;20037;-72
2023/04/23 04:17:08;;;;;;;114.53;53.58;;;8.00;99.90;;;;;;5019222;28;20074;-72
2023/04/23 04:19:34;;;;;;;122.88;54.97;;;7.50;99.90;;;;;;5022137;28;20042;-73
2023/04/23 04:22:02;;;;;;;119.28;54.45;;;8.00;99.90;;;;;;5018187;28;20045;-73
2023/04/23 04:24:31;;;;;;;127.50;56.67;;;7.60;99.90;;;;;;5015735;28;20069;-74
2023/04/23 04:26:58;;;;;;;122.82;55.38;;;7.60;99.90;;;;;;5022979;28;20037;-73
2023/04/23 04:29:25;;;;;;;118.22;54.78;;;7.60;99.90;;;;;;5011986;28;20143;-73
2023/04/23 04:31:52;;;;;;;116.75;55.35;;;7.60;99.90;;;;;;5018269;28;20168;-73
2023/04/23 04:34:18;;;;;;;115.78;54.30;;;7.80;99.90;;;;;;5015606;28;20136;-72
2023/04/23 04:36:43;;;;;;;125.10;57.45;;;7.60;99.90;;;;;;5024600;28;20120;-73
2023/04/23 04:39:09;;;;;;;126.65;54.95;;;7.60;99.90;;;;;;5006792;28;20949;-73
2023/04/23 04:41:38;;;;;;;127.93;58.80;;;7.60;99.90;;;;;;5025289;28;20487;-72
2023/04/23 04:44:04;;;;;;;124.00;56.60;;;7.70;99.90;;;;;;5016863;28;20739;-72
2023/04/23 04:46:30;;;;;;;119.10;56.20;;;7.70;99.90;;;;;;5007293;28;20053;-73
2023/04/23 04:48:56;;;;;;;119.78;57.63;;;7.70;99.90;;;;;;5025289;28;20112;-72
2023/04/23 04:51:22;;;;;;;117.97;56.33;;;7.70;99.90;;;;;;5020175;28;20128;-78
2023/04/23 04:53:47;;;;;;;122.10;57.42;;;8.10;99.90;;;;;;5020294;28;20050;-78
2023/04/23 04:56:13;;;;;;;129.25;59.25;;;7.70;99.90;;;;;;5024692;28;20036;-78
2023/04/23 04:58:39;;;;;;;122.47;57.53;;;7.70;99.90;;;;;;5001612;28;20554;-78
2023/04/23 05:01:05;;;;;;;115.43;56.95;;;8.30;99.90;;;;;;5023605;28;20502;-78
2023/04/23 05:03:31;;;;;;;118.80;56.08;;;7.70;99.90;;;;;;5034027;28;20077;-77
2023/04/23 05:06:00;;;;;;;118.10;55.65;;;7.70;99.90;;;;;;5021541;28;20069;-78
2023/04/23 05:08:25;;;;;;;122.70;56.92;;;7.70;99.90;;;;;;5016813;28;20052;-79
2023/04/23 05:10:53;;;;;;;112.15;56.45;;;7.70;99.90;;;;;;5020678;28;20070;-78
2023/04/23 05:13:18;;;;;;;118.72;56.20;;;7.70;99.90;;;;;;5018895;28;20662;-77
2023/04/23 05:15:47;;;;;;;121.10;58.42;;;7.80;99.90;;;;;;5015644;28;20136;-77
2023/04/23 05:18:13;;;;;;;115.93;56.17;;;7.80;99.90;;;;;;5019725;28;20061;-79
2023/04/23 05:20:39;;;;;;;111.15;56.00;;;7.80;99.90;;;;;;5003525;28;20569;-78
2023/04/23 05:23:05;;;;;;;110.05;54.22;;;7.80;99.90;;;;;;5020121;28;20041;-79
2023/04/23 05:25:33;;;;;;;112.45;55.47;;;7.80;99.90;;;;;;5020222;28;20037;-79
2023/04/23 05:27:59;;;;;;;108.70;53.92;;;7.80;99.90;;;;;;5021910;28;20107;-77
2023/04/23 05:30:24;;;;;;;106.82;52.40;;;7.80;99.90;;;;;;5020335;28;20038;-77
2023/04/23 05:32:50;;;;;;;111.00;53.08;;;7.80;99.90;;;;;;5022080;28;20484;-79
2023/04/23 05:35:16;;;;;;;104.85;53.03;;;7.90;99.90;;;;;;4996987;28;20561;-78
2023/04/23 05:37:42;;;;;;;102.18;50.38;;;7.90;99.90;;;;;;5020222;28;20430;-78
2023/04/23 05:40:08;;;;;;;99.97;51.03;;;7.90;99.90;;;;;;5000388;28;20041;-78
2023/04/23 05:42:35;;;;;;;92.32;49.53;;;7.90;99.90;;;;;;5011963;28;20719;-79
2023/04/23 05:45:01;;;;;;;97.28;50.90;;;7.90;99.90;;;;;;5023866;28;20037;-78
2023/04/23 05:47:28;;;;;;;96.18;50.55;;;7.90;99.90;;;;;;5024248;28;20088;-79
2023/04/23 05:49:56;;;;;;;98.78;50.67;;;7.90;99.90;;;;;;5014845;28;20042;-77
2023/04/23 05:52:22;;;;;;;88.97;47.40;;;7.90;99.90;;;;;;5008691;28;20448;-76
2023/04/23 05:54:48;;;;;;;93.43;48.13;;;8.00;99.90;;;;;;5016247;28;20038;-80
2023/04/23 05:57:14;;;;;;;89.88;47.13;;;8.00;99.90;;;;;;5015270;28;20401;-79
2023/04/23 05:59:40;;;;;;;86.50;45.97;;;8.00;99.90;;;;;;5017489;28;20503;-78
2023/04/23 06:02:07;;;;;;;87.28;48.40;;;8.00;99.90;;;;;;5011498;28;20080;-79
2023/04/23 06:04:32;;;;;;;84.00;46.28;;;8.10;99.90;;;;;;4995470;28;20054;-77
2023/04/23 06:06:58;;;;;;;82.88;44.72;;;8.10;99.90;;;;;;5023180;28;20473;-79
2023/04/23 06:09:24;;;;;;;91.93;48.20;;;8.20;99.90;;;;;;4999750;28;20045;-77
2023/04/23 06:11:51;;;;;;;87.43;47.67;;;8.10;99.90;;;;;;5014994;28;20123;-78
2023/04/23 06:14:17;;;;;;;84.07;46.95;;;8.20;99.90;;;;;;5027099;28;20085;-75
2023/04/23 06:16:43;;;;;;;91.38;49.25;;;8.20;99.90;;;;;;5020549;28;20096;-75
2023/04/23 06:19:08;;;;;;;94.15;49.25;;;8.30;99.90;;;;;;5020224;28;20505;-79
2023/04/23 06:21:34;;;;;;;87.53;46.70;;;8.30;99.90;;;;;;5021502;28;20065;-77
2023/04/23 06:24:00;;;;;;;87.57;47.47;;;8.40;99.90;;;;;;5003993;28;20498;-77
2023/04/23 06:26:25;;;;;;;83.97;47.10;;;8.40;99.90;;;;;;5046635;28;20045;-80
2023/04/23 06:28:51;;;;;;;81.97;45.65;;;8.70;99.90;;;;;;5028222;28;20447;-84
2023/04/23 06:31:18;;;;;;;85.25;47.63;;;8.50;99.90;;;;;;5001260;28;20052;-78
2023/04/23 06:33:43;;;;;;;83.20;48.72;;;8.50;99.90;;;;;;4990042;28;20125;-80
2023/04/23 06:36:09;;;;;;;89.15;48.00;;;8.60;99.90;;;;;;5020241;28;20108;-79
2023/04/23 06:38:36;;;;;;;87.72;47.75;;;8.60;99.90;;;;;;4990478;28;20533;-79
2023/04/23 06:41:03;;;;;;;84.63;47.17;;;8.60;99.90;;;;;;5015922;28;20121;-79
2023/04/23 06:43:29;;;;;;;92.38;50.05;;;8.70;99.90;;;;;;5020702;28;20077;-82
2023/04/23 06:45:55;;;;;;;95.00;51.22;;;8.70;99.90;;;;;;5023899;28;20076;-79
2023/04/23 06:48:21;;;;;;;92.13;51.13;;;8.80;99.90;;;;;;5033947;28;20046;-75
2023/04/23 06:50:50;;;;;;;91.90;48.53;;;8.90;99.90;;;;;;5006753;28;20053;-74
2023/04/23 06:53:16;;;;;;;84.30;48.10;;;9.00;99.90;;;;;;5025505;28;20049;-73
2023/04/23 06:55:42;;;;;;;83.45;48.97;;;9.10;99.90;;;;;;5019091;28;20107;-74
2023/04/23 06:58:08;;;;;;;83.43;47.80;;;9.30;99.90;;;;;;5024958;28;20041;-74
2023/04/23 07:00:34;;;;;;;83.05;47.55;;;9.40;99.90;;;;;;5010727;28;20064;-74
2023/04/23 07:03:00;;;;;;;79.60;46.65;;;9.50;99.90;;;;;;5015786;28;20117;-75
2023/04/23 07:05:26;;;;;;;80.38;44.92;;;9.60;99.90;;;;;;5013123;28;20044;-74
2023/04/23 07:07:51;;;;;;;74.60;45.65;;;9.80;99.90;;;;;;5027739;28;20158;-74
2023/04/23 07:10:17;;;;;;;74.57;45.08;;;9.80;99.90;;;;;;5016262;28;20049;-75
2023/04/23 07:12:43;;;;;;;69.80;42.65;;;9.90;99.90;;;;;;5017157;28;20037;-73
2023/04/23 07:15:10;;;;;;;71.88;43.63;;;10.10;99.90;;;;;;5016495;28;20356;-73
2023/04/23 07:17:35;;;;;;;67.28;42.80;;;10.20;99.90;;;;;;5015700;28;20069;-74
2023/04/23 07:20:05;;;;;;;68.30;42.10;;;10.30;99.90;;;;;;5017255;28;20128;-74
2023/04/23 07:22:31;;;;;;;67.05;39.72;;;10.30;99.90;;;;;;5018886;28;20106;-74
2023/04/23 07:24:58;;;;;;;69.57;41.45;;;10.30;99.90;;;;;;5022160;28;20061;-76
2023/04/23 07:27:24;;;;;;;66.35;41.35;;;10.40;99.90;;;;;;5031196;28;20049;-75
2023/04/23 07:29:50;;;;;;;65.95;41.00;;;10.40;99.90;;;;;;5005385;28;20049;-74
2023/04/23 07:32:16;;;;;;;63.35;40.33;;;10.50;99.90;;;;;;5000140;28;20041;-75
2023/04/23 07:34:41;;;;;;;57.50;37.58;;;10.50;99.90;;;;;;5015256;28;20045;-75
2023/04/23 07:37:07;;;;;;;63.28;39.35;;;10.60;99.90;;;;;;5025554;28;20518;-76
2023/04/23 07:39:34;;;;;;;66.35;39.45;;;10.60;99.90;;;;;;4992210;28;20077;-72
2023/04/23 07:42:00;;;;;;;64.05;40.58;;;10.90;99.90;;;;;;5010709;28;20046;-73
2023/04/23 07:44:27;;;;;;;61.38;39.90;;;10.70;99.90;;;;;;5004943;28;20057;-73
2023/04/23 07:46:53;;;;;;;63.85;39.65;;;10.80;99.90;;;;;;5038048;28;20668;-73
2023/04/23 07:49:18;;;;;;;57.63;38.15;;;10.90;99.90;;;;;;5007609;28;20511;-74
2023/04/23 07:51:44;;;;;;;58.30;38.92;;;11.00;99.90;;;;;;5005651;28;20132;-74
2023/04/23 07:54:10;;;;;;;60.03;39.10;;;11.10;99.90;;;;;;4991473;28;20468;-73
2023/04/23 07:56:36;;;;;;;54.47;35.97;;;11.30;99.90;;;;;;5002516;28;20069;-73
2023/04/23 07:59:03;;;;;;;52.95;35.13;;;11.30;99.90;;;;;;5004522;28;20093;-73
2023/04/23 08:01:29;;;;;;;55.97;35.80;;;11.40;99.90;;;;;;5005870;28;21984;-73
2023/04/23 08:03:55;;;;;;;49.50;34.10;;;11.40;99.90;;;;;;4991556;28;20133;-73
2023/04/23 08:06:22;;;;;;;50.80;33.53;;;11.50;99.90;;;;;;5012331;28;20073;-73
2023/04/23 08:08:48;;;;;;;51.60;33.90;;;11.50;99.90;;;;;;5010632;28;20069;-74
2023/04/23 08:11:14;;;;;;;51.63;34.38;;;11.70;99.90;;;;;;5009292;28;20040;-73
2023/04/23 08:13:40;;;;;;;51.50;33.10;;;11.80;99.90;;;;;;5033401;28;21097;-74
2023/04/23 08:16:05;;;;;;;49.42;33.83;;;11.90;99.90;;;;;;5046224;28;20045;-73
2023/04/23 08:18:31;;;;;;;49.00;33.72;;;12.00;99.90;;;;;;5015886;28;20042;-73
2023/04/23 08:20:58;;;;;;;43.65;30.58;;;12.10;99.90;;;;;;5017480;28;20045;-74
2023/04/23 08:23:23;;;;;;;47.03;31.88;;;12.30;99.90;;;;;;5016557;28;20455;-74
2023/04/23 08:25:52;;;;;;;44.03;31.05;;;12.30;99.90;;;;;;5014766;28;20046;-74
2023/04/23 08:28:18;;;;;;;43.55;31.13;;;12.40;99.90;;;;;;5050757;28;20033;-74
2023/04/23 08:30:44;;;;;;;44.70;30.98;;;12.50;99.90;;;;;;5013570;28;20128;-74
2023/04/23 08:33:10;;;;;;;41.58;28.55;;;12.60;99.90;;;;;;5035269;28;20485;-74
2023/04/23 08:35:37;;;;;;;39.85;27.67;;;12.70;99.90;;;;;;5001418;28;20060;-74
2023/04/23 08:38:02;;;;;;;38.55;27.05;;;12.60;99.90;;;;;;5003335;28;20131;-74
2023/04/23 08:40:30;;;;;;;40.50;27.90;;;12.90;99.90;;;;;;5021393;28;21608;-75
2023/04/23 08:42:55;;;;;;;38.28;26.52;;;13.00;99.90;;;;;;5012237;28;20133;-74
2023/04/23 08:45:22;;;;;;;37.97;26.63;;;13.10;99.90;;;;;;5012357;28;20050;-74
2023/04/23 08:47:47;;;;;;;35.80;25.75;;;13.20;99.90;;;;;;5019993;28;20648;-74
2023/04/23 08:50:16;;;;;;;36.78;26.58;;;13.30;99.90;;;;;;5008615;28;20050;-74
2023/04/23 08:52:48;;;;;;;40.00;26.67;;;13.40;99.90;;;;;;5019407;28;20099;-74
2023/04/23 08:55:15;;;;;;;34.85;24.70;;;13.50;99.90;;;;;;5045827;28;20045;-74
2023/04/23 08:57:41;;;;;;;36.95;25.55;;;13.60;99.90;;;;;;5010372;28;20037;-74
2023/04/23 09:00:09;;;;;;;31.83;23.17;;;13.70;99.90;;;;;;5013704;28;20124;-74
2023/04/23 09:02:39;;;;;;;33.30;22.63;;;13.80;99.90;;;;;;5015053;28;20553;-74
2023/04/23 09:05:05;;;;;;;32.55;22.83;;;13.90;99.90;;;;;;5049684;28;20057;-77
2023/04/23 09:07:32;;;;;;;32.42;21.63;;;14.00;99.90;;;;;;5025636;28;20048;-71
2023/04/23 09:09:58;;;;;;;33.25;23.40;;;14.00;99.90;;;;;;5018727;28;20049;-73
2023/04/23 09:12:24;;;;;;;35.65;23.10;;;14.10;99.90;;;;;;5022603;28;20110;-75
2023/04/23 09:14:50;;;;;;;32.58;20.45;;;14.20;99.90;;;;;;5004765;28;20056;-74
2023/04/23 09:17:21;;;;;;;34.28;21.95;;;14.30;99.90;;;;;;5020471;28;20659;-73
2023/04/23 09:19:47;;;;;;;27.50;18.50;;;14.40;99.90;;;;;;5028923;28;20050;-75
2023/04/23 09:22:13;;;;;;;27.88;18.73;;;14.40;99.90;;;;;;5016400;28;20048;-74
2023/04/23 09:24:42;;;;;;;27.23;18.63;;;14.50;99.90;;;;;;5018492;28;20410;-74
2023/04/23 09:27:08;;;;;;;28.50;19.58;;;14.50;99.90;;;;;;5000850;28;20579;-74
2023/04/23 09:29:35;;;;;;;23.98;16.27;;;14.50;99.90;;;;;;5020998;28;20669;-74
2023/04/23 09:32:08;;;;;;;19.20;12.38;;;14.50;99.90;;;;;;5021274;28;20488;-72
2023/04/23 09:34:38;;;;;;;22.67;14.52;;;14.50;99.90;;;;;;5018131;28;20138;-74
2023/04/23 09:37:09;;;;;;;20.67;13.70;;;14.60;99.90;;;;;;5015650;28;20068;-74
2023/04/23 09:39:35;;;;;;;20.80;13.75;;;14.60;99.90;;;;;;4992910;28;20581;-73
2023/04/23 09:42:04;;;;;;;19.75;13.32;;;14.60;99.90;;;;;;5047705;28;20038;-73
2023/04/23 09:44:33;;;;;;;18.88;13.40;;;14.60;99.90;;;;;;5017009;28;20119;-73
2023/04/23 09:47:13;;;;;;;20.33;12.68;;;14.50;99.90;;;;;;5046183;28;20698;-74
2023/04/23 09:49:49;;;;;;;20.70;14.18;;;14.60;99.90;;;;;;5017404;28;20046;-74
2023/04/23 09:52:16;;;;;;;22.00;14.02;;;14.60;99.90;;;;;;4989476;28;20885;-74
2023/04/23 09:54:42;;;;;;;20.30;13.98;;;14.60;99.90;;;;;;5017442;28;20077;-73
2023/04/23 09:57:10;;;;;;;21.15;12.00;;;14.70;99.90;;;;;;5017311;28;20041;-73
2023/04/23 09:59:36;;;;;;;23.98;14.95;;;14.70;99.90;;;;;;5018678;28;20137;-73
2023/04/23 10:02:04;;;;;;;20.70;14.18;;;14.70;99.90;;;;;;5018970;28;20033;-74
2023/04/23 10:04:30;;;;;;;22.50;12.38;;;14.90;99.90;;;;;;5014836;28;20046;-74
2023/04/23 10:06:58;;;;;;;19.13;10.63;;;15.00;99.90;;;;;;5014256;28;20329;-72
2023/04/23 10:09:25;;;;;;;13.68;7.63;;;15.10;99.90;;;;;;5018092;28;20038;-74
2023/04/23 10:11:52;;;;;;;13.93;8.25;;;15.10;99.90;;;;;;5018432;28;20091;-74
2023/04/23 10:14:22;;;;;;;17.30;7.70;;;15.20;99.90;;;;;;5012822;28;20037;-74
2023/04/23 10:16:50;;;;;;;13.98;7.47;;;15.20;99.90;;;;;;5017474;28;20061;-73
2023/04/23 10:19:21;;;;;;;19.00;7.53;;;15.40;99.90;;;;;;5023236;28;20220;-74
2023/04/23 10:21:56;;;;;;;13.70;6.60;;;15.50;99.90;;;;;;5019364;28;20050;-73
2023/04/23 10:24:29;;;;;;;13.85;5.93;;;15.60;99.90;;;;;;5016427;28;20060;-73
2023/04/23 10:27:01;;;;;;;12.02;6.30;;;15.70;99.90;;;;;;5025163;28;20395;-73
2023/04/23 10:29:32;;;;;;;17.27;6.43;;;15.70;99.90;;;;;;5024865;28;20042;-74
2023/04/23 10:32:00;;;;;;;16.75;7.07;;;15.90;99.90;;;;;;5055282;28;20522;-74
2023/04/23 10:34:27;;;;;;;12.75;6.10;;;15.90;99.90;;;;;;5032083;28;20081;-72
2023/04/23 10:36:55;;;;;;;17.42;6.03;;;16.00;99.90;;;;;;5022450;28;20073;-73
2023/04/23 10:39:23;;;;;;;12.75;6.15;;;16.00;99.90;;;;;;5018836;28;20402;-72
2023/04/23 10:41:53;;;;;;;9.93;5.00;;;16.00;99.90;;;;;;5001681;28;20060;-75
2023/04/23 10:44:22;;;;;;;15.90;6.38;;;16.10;99.90;;;;;;5031661;28;20926;-75
2023/04/23 10:46:56;;;;;;;12.27;6.15;;;16.20;99.90;;;;;;5019967;28;20076;-74
2023/04/23 10:49:24;;;;;;;17.77;5.55;;;16.20;99.90;;;;;;5016931;28;20037;-74
2023/04/23 10:52:00;;;;;;;12.18;5.40;;;16.30;99.90;;;;;;5052463;28;20665;-74
2023/04/23 10:54:30;;;;;;;15.82;5.43;;;16.40;99.90;;;;;;5022018;28;20114;-74
2023/04/23 10:57:04;;;;;;;11.20;4.60;;;16.40;99.90;;;;;;5004852;28;20502;-74
2023/04/23 10:59:31;;;;;;;16.98;5.40;;;16.40;99.90;;;;;;5027779;28;20045;-75
2023/04/23 11:02:06;;;;;;;11.77;4.53;;;16.30;99.90;;;;;;5023584;28;20048;-74
2023/04/23 11:04:33;;;;;;;12.98;4.50;;;16.30;99.90;;;;;;5022240;28;20042;-75
2023/04/23 11:07:07;;;;;;;17.02;5.30;;;16.20;99.90;;;;;;5019002;28;20045;-74
2023/04/23 11:09:48;;;;;;;12.90;3.83;;;16.30;99.90;;;;;;5054189;28;20053;-74
2023/04/23 11:12:23;;;;;;;10.40;3.45;;;16.30;99.90;;;;;;5024642;28;20042;-75
2023/04/23 11:14:50;;;;;;;15.15;3.90;;;16.30;99.90;;;;;;5025566;28;20041;-75
2023/04/23 11:17:18;;;;;;;12.30;3.67;;;16.20;99.90;;;;;;5006121;28;20644;-74
2023/04/23 11:20:02;;;;;;;9.52;3.30;;;16.20;99.90;;;;;;5023935;28;20045;-73
2023/04/23 11:22:41;;;;;;;13.73;3.65;;;16.30;99.90;;;;;;5031131;28;20045;-74
2023/04/23 11:25:12;;;;;;;11.32;3.42;;;16.30;99.90;;;;;;5022243;28;20045;-74
2023/04/23 11:27:45;;;;;;;9.75;2.80;;;16.30;99.90;;;;;;5021764;28;20049;-73
2023/04/23 11:30:21;;;;;;;9.38;2.70;;;16.40;99.90;;;;;;5006452;28;20077;-74
2023/04/23 11:32:49;;;;;;;12.25;2.88;;;16.30;99.90;;;;;;5056563;28;20068;-73
2023/04/23 11:35:20;;;;;;;10.18;2.42;;;16.30;99.90;;;;;;5022123;28;20056;-74
2023/04/23 11:37:47;;;;;;;;;;;16.30;99.90;;;;;;5013476;28;20096;-74
2023/04/23 11:40:18;;;;;;;11.40;2.75;;;16.40;99.90;;;;;;5014319;28;20676;-74
2023/04/23 11:42:48;;;;;;;9.13;2.55;;;16.40;99.90;;;;;;5011027;28;20038;-75
2023/04/23 11:45:15;;;;;;;11.20;2.80;;;16.40;99.90;;;;;;5010525;28;20461;-74
2023/04/23 11:47:42;;;;;;;8.35;2.40;;;16.40;99.90;;;;;;5011680;28;20077;-74
2023/04/23 11:50:09;;;;;;;11.52;2.40;;;16.50;99.90;;;;;;5008803;28;20206;-74
2023/04/23 11:52:34;;;;;;;9.65;2.00;;;16.50;99.90;;;;;;5042958;28;20445;-74
2023/04/23 11:55:06;;;;;;;11.23;2.50;;;16.50;99.90;;;;;;5013520;28;20045;-74
2023/04/23 11:57:36;;;;;;;8.10;2.75;;;16.60;99.90;;;;;;5044150;28;20049;-74
2023/04/23 12:00:20;;;;;;;13.93;2.28;;;16.70;99.90;;;;;;5012701;28;20128;-74
2023/04/23 12:02:49;;;;;;;9.90;2.03;;;16.80;99.90;;;;;;5025318;28;20061;-75
2023/04/23 12:05:18;;;;;;;5.38;1.52;;;16.90;99.90;;;;;;5006425;28;20041;-73
2023/04/23 12:07:48;;;;;;;7.60;2.10;;;16.90;99.90;;;;;;5040910;28;20061;-73
2023/04/23 12:10:21;;;;;;;8.95;1.75;;;17.00;99.90;;;;;;5013980;28;20115;-74
2023/04/23 12:12:53;;;;;;;7.15;1.83;;;17.00;99.90;;;;;;5013843;28;20506;-74
2023/04/23 12:15:19;;;;;;;11.38;2.10;;;17.10;99.90;;;;;;5014139;28;20497;-74
2023/04/23 12:17:50;;;;;;;8.27;1.70;;;17.10;99.90;;;;;;5010747;28;20530;-73
2023/04/23 12:20:20;;;;;;;7.82;1.85;;;17.20;99.90;;;;;;5011922;28;20045;-75
2023/04/23 12:22:46;;;;;;;6.27;1.80;;;17.20;99.90;;;;;;5025366;28;20585;-75
2023/04/23 12:25:12;;;;;;;7.00;1.55;;;17.10;99.90;;;;;;4994964;28;20041;-74
2023/04/23 12:27:39;;;;;;;5.95;1.38;;;17.10;99.90;;;;;;5043645;28;20053;-74
2023/04/23 12:30:06;;;;;;;8.25;1.70;;;17.20;99.90;;;;;;4998869;28;20203;-73
2023/04/23 12:32:33;;;;;;;6.07;1.55;;;17.10;99.90;;;;;;4994694;28;20077;-74